Time;durP1;ratioP1;P1;durP2;ratioP2;P2;SDS_P1;SDS_P2;PMS_P1;PMS_P2;Temp;Humidity;BMP_temperature;BMP_pressure;BME280_temperature;BME280_humidity;BME280_pressure;Samples;Min_cycle;Max_cycle;Signal;HPM_P1;HPM_P2
2023/09/16 00:03:47;;;;;;;5.82;2.90;;;;;;;14.83;64.39;99819.63;10504389;28;20035;-61
2023/09/16 00:08:49;;;;;;;5.05;1.90;;;;;;;14.85;64.31;99825.63;10525668;28;20054;-61
2023/09/16 00:13:52;;;;;;;3.22;1.90;;;;;;;14.86;64.59;99828.13;10512909;28;20129;-61
2023/09/16 00:18:54;;;;;;;3.88;1.90;;;;;;;14.73;64.21;99816.06;10493190;28;20070;-61
2023/09/16 00:23:56;;;;;;;5.07;2.00;;;;;;;14.49;64.67;99814.38;10512049;28;20189;-61
2023/09/16 00:28:57;;;;;;;7.35;1.83;;;;;;;14.45;64.91;99809.44;10512257;28;20354;-61
2023/09/16 00:34:00;;;;;;;5.93;2.40;;;;;;;14.38;64.86;99808.22;10476291;28;20046;-61
2023/09/16 00:39:02;;;;;;;4.22;2.30;;;;;;;14.38;65.22;99814.34;10494670;28;20051;-61
2023/09/16 00:44:04;;;;;;;5.40;2.55;;;;;;;14.45;65.10;99805.00;10512081;28;20052;-61
2023/09/16 00:49:06;;;;;;;8.68;2.58;;;;;;;14.33;65.25;99807.78;10490919;28;20032;-61
2023/09/16 00:54:08;;;;;;;4.75;2.15;;;;;;;14.38;65.17;99806.44;10510927;28;20048;-61
2023/09/16 00:59:12;;;;;;;5.78;3.20;;;;;;;14.39;65.44;99796.78;10509903;28;20407;-61
2023/09/16 01:04:14;;;;;;;4.40;2.33;;;;;;;14.45;65.01;99786.59;10493178;28;20044;-61
2023/09/16 01:09:17;;;;;;;5.53;2.38;;;;;;;14.31;65.38;99784.19;10489040;28;20058;-61
2023/09/16 01:14:19;;;;;;;4.03;2.28;;;;;;;14.38;65.37;99784.56;10509514;28;20438;-61
2023/09/16 01:19:21;;;;;;;6.15;2.10;;;;;;;14.27;65.40;99790.63;10490633;28;20076;-61
2023/09/16 01:24:24;;;;;;;5.28;2.25;;;;;;;14.39;65.31;99792.31;10493949;28;20056;-61
2023/09/16 01:29:27;;;;;;;3.30;2.05;;;;;;;14.47;65.21;99797.00;10487761;28;20048;-62
2023/09/16 01:34:46;;;;;;;3.92;2.25;;;;;;;14.39;65.36;99794.94;10489932;28;20126;-61
2023/09/16 01:39:53;;;;;;;4.75;2.38;;;;;;;14.33;64.99;99797.25;10501177;28;20036;-61
2023/09/16 01:44:56;;;;;;;4.00;2.38;;;;;;;14.27;64.95;99785.38;10485693;28;20466;-62
2023/09/16 01:49:58;;;;;;;4.18;2.17;;;;;;;14.16;64.99;99788.00;10506983;28;20590;-61
2023/09/16 01:55:01;;;;;;;4.15;2.13;;;;;;;14.20;65.21;99793.88;10483385;28;20431;-61
2023/09/16 02:00:05;;;;;;;4.88;2.10;;;;;;;14.22;65.16;99784.06;10508240;28;20174;-61
2023/09/16 02:05:15;;;;;;;4.53;2.22;;;;;;;14.05;65.20;99789.78;10513101;28;20048;-61
2023/09/16 02:10:17;;;;;;;3.88;2.10;;;;;;;14.00;65.14;99789.28;10515214;28;20146;-61
2023/09/16 02:15:19;;;;;;;5.95;2.78;;;;;;;13.98;65.33;99791.22;10490109;28;20044;-62
2023/09/16 02:20:21;;;;;;;5.80;2.03;;;;;;;13.92;65.38;99783.78;10494641;28;20043;-62
2023/09/16 02:25:23;;;;;;;4.70;2.13;;;;;;;13.79;65.76;99789.13;10512598;28;20051;-61
2023/09/16 02:30:25;;;;;;;3.90;2.00;;;;;;;13.93;65.53;99796.81;10492525;28;20849;-61
2023/09/16 02:35:28;;;;;;;4.78;2.25;;;;;;;13.99;65.50;99798.97;10495353;28;20044;-61
2023/09/16 02:40:30;;;;;;;4.78;2.45;;;;;;;14.03;65.22;99796.94;10495590;28;20448;-62
2023/09/16 02:45:43;;;;;;;3.28;1.75;;;;;;;13.98;65.16;99794.69;10509706;28;20044;-61
2023/09/16 02:50:46;;;;;;;4.13;2.00;;;;;;;13.77;65.50;99793.66;10494643;28;20048;-61
2023/09/16 02:55:48;;;;;;;5.35;1.90;;;;;;;13.81;65.56;99789.84;10496089;28;20052;-61
2023/09/16 03:00:50;;;;;;;4.38;2.20;;;;;;;13.87;65.38;99793.78;10493884;28;20046;-61
2023/09/16 03:05:52;;;;;;;2.63;1.60;;;;;;;13.84;65.45;99789.59;10477046;28;20040;-61
2023/09/16 03:11:05;;;;;;;5.28;2.15;;;;;;;13.86;65.44;99784.25;10505995;28;20510;-62
2023/09/16 03:16:17;;;;;;;7.00;1.92;;;;;;;13.86;65.47;99784.25;10487010;28;20198;-62
2023/09/16 03:21:24;;;;;;;4.85;2.20;;;;;;;13.84;65.00;99780.91;10522726;28;20040;-61
2023/09/16 03:26:31;;;;;;;4.43;2.47;;;;;;;13.57;65.52;99775.91;10488689;28;20419;-61
2023/09/16 03:31:34;;;;;;;3.10;1.80;;;;;;;13.50;65.56;99775.53;10482414;28;20044;-61
2023/09/16 03:36:41;;;;;;;3.15;1.70;;;;;;;13.51;65.82;99765.88;10481881;28;20040;-61
2023/09/16 03:41:44;;;;;;;3.03;1.63;;;;;;;13.43;65.96;99768.22;10457908;28;20044;-61
2023/09/16 03:46:48;;;;;;;3.10;1.70;;;;;;;13.49;65.70;99765.97;10477036;28;20048;-61
2023/09/16 03:51:50;;;;;;;3.45;1.65;;;;;;;13.56;65.60;99764.56;10496470;28;20044;-61
2023/09/16 03:56:52;;;;;;;3.65;1.92;;;;;;;13.53;65.49;99770.06;10480195;28;20044;-61
2023/09/16 04:01:54;;;;;;;33.60;2.40;;;;;;;13.32;65.77;99760.25;10494436;28;20590;-61
2023/09/16 04:06:57;;;;;;;11.02;2.10;;;;;;;13.10;66.03;99754.91;10493050;28;20307;-61
2023/09/16 04:12:02;;;;;;;2.50;1.42;;;;;;;13.17;66.02;99751.69;10496336;28;21052;-61
2023/09/16 04:17:04;;;;;;;3.60;1.77;;;;;;;13.27;65.95;99759.75;10509103;28;20127;-62
2023/09/16 04:22:06;;;;;;;8.80;1.92;;;;;;;13.13;65.76;99755.50;10511830;28;20046;-61
2023/09/16 04:27:08;;;;;;;3.75;1.77;;;;;;;13.04;66.13;99764.06;10443344;28;20256;-61
2023/09/16 04:32:12;;;;;;;2.88;1.65;;;;;;;12.90;66.23;99761.59;10427911;28;20126;-61
2023/09/16 04:37:15;;;;;;;1.83;1.23;;;;;;;12.99;66.39;99760.91;10425346;28;20056;-61
2023/09/16 04:42:18;;;;;;;2.67;1.58;;;;;;;13.10;65.96;99762.78;10422480;28;20388;-62
2023/09/16 04:47:21;;;;;;;2.47;1.50;;;;;;;13.11;65.92;99757.41;10423626;28;20065;-61
2023/09/16 04:52:27;;;;;;;40.42;2.30;;;;;;;13.02;65.97;99757.25;10419744;28;20033;-61
2023/09/16 04:57:33;;;;;;;4.35;1.67;;;;;;;12.91;66.24;99758.84;10438138;28;20045;-62
2023/09/16 05:02:35;;;;;;;8.65;1.50;;;;;;;12.82;66.21;99763.94;10439312;28;20041;-62
2023/09/16 05:07:37;;;;;;;5.38;1.60;;;;;;;12.69;66.57;99761.34;10405332;28;20195;-62
2023/09/16 05:12:40;;;;;;;16.15;1.92;;;;;;;12.73;66.70;99762.78;10422826;28;20055;-62
2023/09/16 05:17:42;;;;;;;3.10;1.70;;;;;;;12.88;66.35;99763.50;10433811;28;20424;-62
2023/09/16 05:22:50;;;;;;;2.60;1.58;;;;;;;12.87;66.27;99772.31;10413567;28;21579;-62
2023/09/16 05:27:57;;;;;;;2.55;1.60;;;;;;;12.88;66.02;99763.50;10473445;28;20705;-62
2023/09/16 05:32:59;;;;;;;2.17;1.40;;;;;;;12.99;65.99;99763.53;10448545;28;20054;-62
2023/09/16 05:38:02;;;;;;;2.15;1.40;;;;;;;13.12;65.88;99759.09;10473608;28;20056;-62
2023/09/16 05:43:04;;;;;;;4.47;1.70;;;;;;;13.21;65.69;99761.03;10496533;28;20064;-62
2023/09/16 05:48:06;;;;;;;2.92;1.67;;;;;;;13.16;65.67;99759.69;10478027;28;20053;-62
2023/09/16 05:53:15;;;;;;;2.50;1.40;;;;;;;13.32;65.49;99761.09;10457639;28;20051;-62
2023/09/16 05:58:17;;;;;;;2.13;1.25;;;;;;;13.42;65.47;99756.00;10440558;28;20051;-62
2023/09/16 06:03:20;;;;;;;3.42;1.50;;;;;;;13.52;65.38;99757.00;10462578;28;20036;-62
2023/09/16 06:08:22;;;;;;;3.60;1.42;;;;;;;13.67;64.93;99761.97;10460029;28;20044;-62
2023/09/16 06:13:25;;;;;;;3.38;1.80;;;;;;;13.89;65.07;99766.44;10486420;28;20044;-62
2023/09/16 06:18:27;;;;;;;2.35;1.55;;;;;;;14.02;64.96;99769.81;10455504;28;20211;-61
2023/09/16 06:23:29;;;;;;;3.00;1.40;;;;;;;14.08;64.95;99766.72;10466621;28;20048;-61
2023/09/16 06:28:33;;;;;;;3.10;1.55;;;;;;;14.23;64.85;99762.91;10487846;28;20645;-62
2023/09/16 06:33:36;;;;;;;2.92;1.50;;;;;;;14.39;64.61;99762.56;10489279;28;20040;-62
2023/09/16 06:38:38;;;;;;;4.03;1.70;;;;;;;14.58;64.63;99770.72;10457098;28;20040;-62
2023/09/16 06:43:41;;;;;;;2.58;1.60;;;;;;;14.75;64.30;99777.28;10488469;28;20051;-61
2023/09/16 06:48:45;;;;;;;2.15;1.40;;;;;;;14.92;64.17;99767.06;10503564;28;20044;-64
2023/09/16 06:53:47;;;;;;;3.08;1.77;;;;;;;15.15;63.72;99759.94;10507480;28;20050;-64
2023/09/16 06:58:49;;;;;;;3.30;1.70;;;;;;;15.35;63.75;99764.41;10509816;28;20054;-62
2023/09/16 07:03:51;;;;;;;16.98;3.50;;;;;;;15.54;63.44;99766.41;10505870;28;20040;-62
2023/09/16 07:08:53;;;;;;;31.00;4.40;;;;;;;15.66;63.65;99758.34;10500187;28;20613;-62
2023/09/16 07:13:55;;;;;;;10.27;3.33;;;;;;;15.77;63.66;99757.44;10498160;28;20047;-62
2023/09/16 07:18:57;;;;;;;4.80;2.55;;;;;;;15.82;63.41;99761.34;10495016;28;20040;-62
2023/09/16 07:24:03;;;;;;;7.25;2.83;;;;;;;16.00;63.23;99762.44;10498707;28;20567;-62
2023/09/16 07:29:06;;;;;;;4.85;2.10;;;;;;;16.21;62.77;99772.97;10481722;28;20063;-62
2023/09/16 07:34:08;;;;;;;4.55;2.45;;;;;;;16.39;62.35;99775.81;10507138;28;20052;-61
2023/09/16 07:39:10;;;;;;;5.35;2.53;;;;;;;17.03;61.88;99764.84;10466528;28;20052;-62
2023/09/16 07:44:12;;;;;;;4.85;2.00;;;;;;;17.73;60.47;99763.75;10503431;28;20688;-62
2023/09/16 07:49:17;;;;;;;3.92;2.25;;;;;;;18.28;58.49;99762.16;10502945;28;20048;-62
2023/09/16 07:54:19;;;;;;;4.07;2.15;;;;;;;18.73;57.70;99765.72;10486866;28;20047;-62
2023/09/16 07:59:21;;;;;;;6.70;2.70;;;;;;;19.18;56.16;99763.94;10484842;28;20695;-62
2023/09/16 08:04:23;;;;;;;10.27;2.65;;;;;;;19.75;55.41;99767.09;10497411;28;20052;-62
2023/09/16 08:09:25;;;;;;;4.28;2.28;;;;;;;20.18;54.60;99762.66;10501306;28;20048;-64
2023/09/16 08:14:27;;;;;;;4.50;2.92;;;;;;;19.89;53.91;99774.53;10504644;28;20142;-64
2023/09/16 08:19:32;;;;;;;3.80;1.85;;;;;;;20.05;51.57;99772.84;10502527;28;20500;-64
2023/09/16 08:24:34;;;;;;;5.22;2.10;;;;;;;20.22;53.36;99771.97;10474431;28;20051;-64
2023/09/16 08:29:36;;;;;;;8.15;2.22;;;;;;;20.36;52.80;99773.19;10506346;28;20482;-63
2023/09/16 08:34:38;;;;;;;3.55;2.03;;;;;;;20.54;52.65;99775.81;10510942;28;20048;-64
2023/09/16 08:39:40;;;;;;;4.63;2.58;;;;;;;20.73;52.11;99775.56;10509040;28;20653;-64
2023/09/16 08:44:47;;;;;;;3.78;2.03;;;;;;;21.06;51.69;99783.50;10505800;28;20056;-64
2023/09/16 08:49:53;;;;;;;7.32;3.40;;;;;;;21.31;50.95;99781.75;10507367;28;20403;-64
2023/09/16 08:54:57;;;;;;;4.25;2.25;;;;;;;21.49;50.42;99771.81;10508454;28;20571;-65
2023/09/16 08:59:59;;;;;;;4.57;2.35;;;;;;;21.41;49.89;99768.31;10509326;28;20063;-64
2023/09/16 09:05:03;;;;;;;4.43;2.10;;;;;;;21.60;50.11;99765.31;10512744;28;20044;-64
2023/09/16 09:10:06;;;;;;;4.53;2.05;;;;;;;22.07;49.71;99762.88;10510691;28;20442;-64
2023/09/16 09:15:14;;;;;;;4.40;2.25;;;;;;;21.92;49.42;99774.13;10512051;28;20165;-64
2023/09/16 09:20:21;;;;;;;4.00;2.30;;;;;;;22.18;48.04;99766.00;10509671;28;20271;-64
2023/09/16 09:25:26;;;;;;;6.10;2.03;;;;;;;22.27;47.42;99770.28;10492618;28;20047;-64
2023/09/16 09:30:29;;;;;;;4.63;2.20;;;;;;;22.24;49.06;99775.13;10509287;28;20506;-64
2023/09/16 09:35:31;;;;;;;5.15;2.53;;;;;;;22.41;48.78;99774.09;10510926;28;20047;-64
2023/09/16 09:40:33;;;;;;;3.95;2.38;;;;;;;22.51;48.82;99772.91;10509836;28;20051;-64
2023/09/16 09:45:37;;;;;;;5.90;2.22;;;;;;;22.65;48.49;99764.19;10506068;28;20654;-64
2023/09/16 09:50:41;;;;;;;4.00;2.25;;;;;;;22.99;47.98;99760.38;10506916;28;20054;-64
2023/09/16 09:55:43;;;;;;;3.75;2.10;;;;;;;23.07;48.06;99763.00;10507225;28;20127;-64
2023/09/16 10:00:50;;;;;;;3.83;2.08;;;;;;;23.24;46.64;99762.75;10507359;28;20040;-64
2023/09/16 10:05:52;;;;;;;7.00;2.00;;;;;;;23.23;47.55;99752.22;10481318;28;20039;-64
2023/09/16 10:10:54;;;;;;;4.75;1.98;;;;;;;23.12;48.08;99749.97;10472526;28;20048;-64
2023/09/16 10:16:00;;;;;;;4.68;2.28;;;;;;;23.46;47.87;99748.63;10494615;28;20765;-64
2023/09/16 10:21:02;;;;;;;5.28;2.22;;;;;;;23.66;47.52;99748.94;10496052;28;20287;-64
2023/09/16 10:26:04;;;;;;;3.08;2.10;;;;;;;23.42;47.52;99747.31;10499218;28;20542;-64
2023/09/16 10:31:07;;;;;;;5.28;2.33;;;;;;;23.77;47.67;99740.53;10492420;28;20052;-64
2023/09/16 10:36:11;;;;;;;4.43;2.33;;;;;;;24.02;47.33;99739.25;10502140;28;20043;-64
2023/09/16 10:41:15;;;;;;;4.25;2.00;;;;;;;23.93;47.35;99737.69;10523576;27;20036;-64
2023/09/16 10:46:20;;;;;;;3.53;2.10;;;;;;;23.94;47.49;99735.84;10487118;28;20122;-64
2023/09/16 10:51:23;;;;;;;4.28;2.05;;;;;;;23.80;48.00;99726.78;10488090;28;20051;-64
2023/09/16 10:56:33;;;;;;;4.15;2.08;;;;;;;23.93;47.31;99728.84;10509586;28;20070;-64
2023/09/16 11:01:39;;;;;;;3.53;2.13;;;;;;;23.71;48.27;99733.22;10506957;28;20421;-64
2023/09/16 11:06:50;;;;;;;16.65;2.35;;;;;;;23.86;48.44;99726.06;10505288;28;20048;-64
2023/09/16 11:11:54;;;;;;;4.55;2.33;;;;;;;23.99;48.25;99722.78;10506409;28;20508;-64
2023/09/16 11:16:58;;;;;;;5.13;2.55;;;;;;;23.85;48.26;99718.25;10487758;28;20048;-64
2023/09/16 11:22:02;;;;;;;6.43;2.85;;;;;;;23.98;48.11;99713.13;10508091;28;20085;-64
2023/09/16 11:27:05;;;;;;;3.42;2.15;;;;;;;24.19;48.21;99711.41;10488844;28;20567;-64
2023/09/16 11:32:08;;;;;;;3.65;2.15;;;;;;;24.25;47.90;99699.97;10503332;28;20513;-64
2023/09/16 11:37:11;;;;;;;4.53;2.20;;;;;;;24.38;48.12;99699.31;10507675;28;20700;-64
2023/09/16 11:42:13;;;;;;;4.05;2.33;;;;;;;24.36;47.81;99695.16;10505878;28;20034;-64
2023/09/16 11:47:16;;;;;;;4.53;2.35;;;;;;;24.52;48.43;99684.28;10504077;28;20044;-64
2023/09/16 11:52:18;;;;;;;4.13;2.20;;;;;;;24.71;47.61;99679.22;10486824;28;20578;-64
2023/09/16 11:57:20;;;;;;;4.47;2.40;;;;;;;24.82;47.60;99672.53;10507375;28;20044;-64
2023/09/16 12:02:22;;;;;;;4.70;2.40;;;;;;;24.81;47.75;99668.22;10507449;28;20540;-64
2023/09/16 12:07:25;;;;;;;3.58;2.10;;;;;;;24.91;47.20;99671.41;10523640;27;20070;-64
2023/09/16 12:12:27;;;;;;;3.75;2.35;;;;;;;24.88;47.53;99677.13;10510434;28;20051;-64
2023/09/16 12:17:29;;;;;;;4.70;2.70;;;;;;;25.04;47.17;99666.16;10504534;28;20046;-64
2023/09/16 12:22:31;;;;;;;4.32;2.80;;;;;;;25.25;47.25;99660.00;10509565;28;20089;-64
2023/09/16 12:27:33;;;;;;;4.53;2.47;;;;;;;25.48;47.37;99647.25;10503470;28;20058;-64
2023/09/16 12:32:36;;;;;;;3.65;2.08;;;;;;;25.72;46.78;99652.19;10482609;28;20074;-64
2023/09/16 12:37:39;;;;;;;3.53;2.40;;;;;;;25.58;46.38;99642.38;10507029;28;20040;-64
2023/09/16 12:42:42;;;;;;;5.32;2.55;;;;;;;25.78;46.63;99643.34;10505181;28;20063;-64
2023/09/16 12:47:44;;;;;;;4.47;2.47;;;;;;;25.83;46.32;99639.06;10496168;28;20483;-64
2023/09/16 12:52:47;;;;;;;4.18;2.08;;;;;;;26.06;46.35;99625.41;10513152;28;20048;-64
2023/09/16 12:57:51;;;;;;;4.25;2.28;;;;;;;26.27;45.21;99621.81;10510384;28;20736;-64
2023/09/16 13:02:53;;;;;;;4.95;2.30;;;;;;;26.18;45.41;99613.09;10512482;28;20496;-64
2023/09/16 13:07:58;;;;;;;4.47;2.40;;;;;;;26.29;45.97;99615.22;10514442;28;20044;-65
2023/09/16 13:13:00;;;;;;;3.40;2.00;;;;;;;26.51;45.50;99607.88;10513513;28;20036;-64
2023/09/16 13:18:04;;;;;;;5.20;2.53;;;;;;;26.49;45.33;99610.75;10514051;28;20075;-64
2023/09/16 13:23:15;;;;;;;4.88;2.45;;;;;;;26.68;44.96;99603.84;10511765;28;20079;-64
2023/09/16 13:28:19;;;;;;;3.88;2.15;;;;;;;26.72;44.57;99602.41;10511174;28;20499;-64
2023/09/16 13:33:53;;;;;;;3.90;2.17;;;;;;;26.76;44.29;99603.63;10492488;28;20420;-65
2023/09/16 13:38:56;;;;;;;5.80;2.88;;;;;;;27.04;44.40;99595.41;10505519;28;20042;-64
2023/09/16 13:43:58;;;;;;;3.50;2.10;;;;;;;27.15;44.07;99595.69;10501128;28;20043;-66
2023/09/16 13:49:01;;;;;;;3.53;2.00;;;;;;;27.21;43.93;99599.38;10490882;28;20040;-64
2023/09/16 13:54:03;;;;;;;3.67;2.10;;;;;;;27.22;43.56;99598.38;10507406;28;20508;-64
2023/09/16 13:59:05;;;;;;;4.18;2.53;;;;;;;27.25;43.09;99598.78;10507243;28;20044;-64
2023/09/16 14:04:07;;;;;;;10.10;2.95;;;;;;;27.40;43.45;99601.25;10504212;28;20048;-63
2023/09/16 14:09:09;;;;;;;3.33;2.08;;;;;;;27.07;43.65;99601.22;10508551;28;20078;-64
2023/09/16 14:14:11;;;;;;;3.70;2.20;;;;;;;26.99;43.73;99596.06;10509845;28;20040;-63
2023/09/16 14:19:15;;;;;;;3.85;2.30;;;;;;;27.24;43.17;99589.06;10502902;28;20404;-64
2023/09/16 14:24:17;;;;;;;3.38;2.28;;;;;;;27.64;42.81;99594.38;10508515;28;20060;-64
2023/09/16 14:29:19;;;;;;;4.47;2.00;;;;;;;27.96;42.47;99582.75;10505861;28;20508;-64
2023/09/16 14:34:21;;;;;;;3.25;2.05;;;;;;;27.75;42.79;99577.66;10508260;28;20040;-63
2023/09/16 14:39:25;;;;;;;4.90;2.30;;;;;;;27.40;42.79;99588.63;10507366;28;20039;-64
2023/09/16 14:44:27;;;;;;;4.03;2.25;;;;;;;27.06;43.04;99590.66;10508617;28;20060;-64
2023/09/16 14:49:30;;;;;;;4.90;2.33;;;;;;;26.89;43.40;99584.06;10504956;28;20446;-64
2023/09/16 14:54:32;;;;;;;3.42;2.20;;;;;;;26.79;43.80;99583.63;10505256;28;20032;-64
2023/09/16 14:59:35;;;;;;;4.68;2.25;;;;;;;26.75;44.15;99577.03;10501441;28;20431;-64
2023/09/16 15:04:37;;;;;;;2.97;1.85;;;;;;;26.86;44.05;99574.56;10487533;28;20048;-63
2023/09/16 15:09:39;;;;;;;3.50;2.20;;;;;;;27.03;43.76;99583.03;10501380;28;20056;-64
2023/09/16 15:14:41;;;;;;;4.93;2.08;;;;;;;27.25;43.84;99579.97;10501084;28;20043;-64
2023/09/16 15:19:43;;;;;;;4.85;2.10;;;;;;;27.46;43.73;99576.25;10501320;28;20043;-64
2023/09/16 15:24:45;;;;;;;3.92;2.40;;;;;;;27.52;43.53;99580.78;10507047;28;20040;-64
2023/09/16 15:29:47;;;;;;;5.88;2.40;;;;;;;27.47;43.50;99584.09;10502795;28;20040;-64
2023/09/16 15:34:49;;;;;;;3.17;1.90;;;;;;;27.45;44.11;99583.47;10507183;28;20152;-64
2023/09/16 15:39:51;;;;;;;4.05;2.47;;;;;;;27.37;44.82;99585.53;10500552;28;20036;-64
2023/09/16 15:44:54;;;;;;;4.38;2.45;;;;;;;27.17;46.31;99593.59;10502813;28;20043;-64
2023/09/16 15:49:58;;;;;;;4.70;2.20;;;;;;;27.00;47.39;99592.31;10497131;28;20706;-64
2023/09/16 15:55:00;;;;;;;4.88;2.10;;;;;;;26.91;47.39;99593.56;10497090;28;20502;-64
2023/09/16 16:00:02;;;;;;;4.82;2.33;;;;;;;26.78;48.10;99596.22;10480256;28;20048;-64
2023/09/16 16:16:11;;;;;;;3.40;1.95;;;;;;;25.03;52.44;99608.34;10543839;27;20140;-65
2023/09/16 16:25:03;;;;;;;4.78;2.35;;;;;;;25.20;52.60;99615.09;10328561;27;20137;-63
2023/09/16 16:30:06;;;;;;;3.90;2.20;;;;;;;25.19;52.53;99615.25;10290356;28;20046;-63
2023/09/16 16:35:08;;;;;;;4.38;2.40;;;;;;;25.10;52.99;99615.41;10324414;28;20038;-63
2023/09/16 16:40:10;;;;;;;4.03;2.08;;;;;;;25.07;53.25;99621.16;10322689;28;20413;-63
2023/09/16 16:45:12;;;;;;;4.18;2.63;;;;;;;25.01;53.66;99610.38;10324213;28;20054;-63
2023/09/16 16:50:16;;;;;;;3.35;2.08;;;;;;;24.79;54.46;99604.22;10320219;28;20043;-63
2023/09/16 16:55:18;;;;;;;3.88;2.30;;;;;;;24.83;54.84;99624.22;10321895;28;20061;-63
2023/09/16 17:00:20;;;;;;;5.30;2.30;;;;;;;24.80;55.15;99615.72;10320872;28;20057;-62
2023/09/16 17:05:22;;;;;;;4.40;2.55;;;;;;;24.70;55.42;99625.84;10319758;28;20050;-63
2023/09/16 17:10:28;;;;;;;4.13;2.45;;;;;;;24.59;55.84;99626.38;10322124;28;20046;-63
2023/09/16 17:15:30;;;;;;;3.63;2.40;;;;;;;24.41;55.97;99625.97;10321700;28;20448;-63
2023/09/16 17:20:33;;;;;;;5.22;2.40;;;;;;;24.20;56.27;99624.03;10320178;28;20513;-62
2023/09/16 17:25:37;;;;;;;5.40;2.28;;;;;;;24.14;56.28;99627.47;10325558;28;20237;-63
2023/09/16 17:30:39;;;;;;;3.63;2.38;;;;;;;23.99;56.77;99626.59;10320589;28;20052;-63
2023/09/16 17:35:41;;;;;;;4.88;2.58;;;;;;;23.85;57.23;99628.25;10265139;28;20053;-63
2023/09/16 17:40:43;;;;;;;5.38;2.72;;;;;;;23.81;57.46;99628.81;10279540;28;20198;-63
2023/09/16 17:45:45;;;;;;;5.03;2.38;;;;;;;23.71;57.60;99629.09;10294762;28;20044;-62
2023/09/16 17:50:50;;;;;;;4.10;2.40;;;;;;;23.61;58.08;99641.03;10298970;28;20054;-63
2023/09/16 17:55:52;;;;;;;6.03;2.55;;;;;;;23.54;58.08;99643.59;10295863;28;20054;-63
2023/09/16 18:00:54;;;;;;;7.40;3.15;;;;;;;23.43;58.74;99641.38;10273423;28;20358;-62
2023/09/16 18:05:56;;;;;;;5.30;2.40;;;;;;;23.33;59.02;99646.13;10296040;28;20570;-62
2023/09/16 18:10:58;;;;;;;5.47;2.10;;;;;;;23.25;59.17;99660.31;10289109;28;20122;-62
2023/09/16 18:16:00;;;;;;;4.93;2.65;;;;;;;23.10;59.53;99653.28;10296229;28;20045;-61
2023/09/16 18:21:03;;;;;;;4.65;2.50;;;;;;;23.00;59.61;99653.53;10297926;28;20046;-61
2023/09/16 18:26:05;;;;;;;4.03;2.38;;;;;;;22.90;60.00;99654.78;10252818;28;20141;-61
2023/09/16 18:31:07;;;;;;;5.10;2.45;;;;;;;22.74;60.41;99662.88;10299243;28;20050;-62
2023/09/16 18:36:10;;;;;;;3.33;2.20;;;;;;;22.57;60.86;99670.09;10292899;28;20155;-62
2023/09/16 18:41:12;;;;;;;4.57;2.60;;;;;;;22.56;60.99;99679.91;10294688;28;20552;-62
2023/09/16 18:46:14;;;;;;;7.13;2.83;;;;;;;22.52;61.21;99680.44;10290802;28;20398;-62
2023/09/16 18:51:17;;;;;;;4.95;2.50;;;;;;;22.52;61.31;99683.94;10290029;28;20080;-62
2023/09/16 18:56:19;;;;;;;4.25;2.42;;;;;;;22.48;61.48;99690.63;10276836;28;20811;-62
2023/09/16 19:01:21;;;;;;;4.05;2.60;;;;;;;22.45;61.29;99690.16;10288218;28;20091;-61
2023/09/16 19:06:24;;;;;;;6.55;2.65;;;;;;;22.33;61.68;99704.84;10288394;28;20062;-61
2023/09/16 19:11:27;;;;;;;4.85;2.97;;;;;;;22.35;61.48;99708.16;10273328;28;20058;-64
2023/09/16 19:16:32;;;;;;;6.70;2.90;;;;;;;22.27;62.11;99711.69;10288725;28;20506;-64
2023/09/16 19:21:34;;;;;;;5.07;2.53;;;;;;;22.27;61.71;99714.34;10295367;28;20050;-64
2023/09/16 19:26:39;;;;;;;5.05;2.60;;;;;;;22.28;61.87;99708.03;10293327;28;20410;-64
2023/09/16 19:31:41;;;;;;;3.85;2.25;;;;;;;22.10;62.43;99701.25;10296314;28;20050;-64
2023/09/16 19:36:43;;;;;;;4.78;2.92;;;;;;;22.09;62.85;99703.06;10295705;28;20461;-64
2023/09/16 19:41:45;;;;;;;3.85;2.42;;;;;;;22.07;63.30;99701.59;10292097;28;20042;-64
2023/09/16 19:46:48;;;;;;;5.88;2.67;;;;;;;22.04;63.07;99697.44;10296404;28;20192;-64
2023/09/16 19:51:58;;;;;;;4.00;2.55;;;;;;;21.82;63.33;99696.28;10263132;28;20406;-64
2023/09/16 19:57:01;;;;;;;6.43;2.72;;;;;;;21.61;63.59;99703.97;10293110;28;20045;-64
2023/09/16 20:02:05;;;;;;;6.07;2.97;;;;;;;21.52;63.71;99704.13;10294161;28;20137;-64
2023/09/16 20:07:08;;;;;;;4.43;2.55;;;;;;;21.47;64.16;99707.31;10272150;28;20475;-64
2023/09/16 20:12:10;;;;;;;7.07;3.10;;;;;;;21.34;64.73;99703.44;10286827;28;20047;-64
2023/09/16 20:17:12;;;;;;;4.05;2.47;;;;;;;21.11;65.32;99702.41;10289187;28;20084;-64
2023/09/16 20:22:15;;;;;;;3.78;2.40;;;;;;;21.09;65.71;99698.09;10288400;28;20054;-64
2023/09/16 20:27:19;;;;;;;5.13;2.90;;;;;;;21.24;65.64;99706.25;10290439;28;20561;-64
2023/09/16 20:32:21;;;;;;;5.03;2.80;;;;;;;21.24;65.34;99705.41;10259983;28;20755;-64
2023/09/16 20:37:23;;;;;;;5.00;2.70;;;;;;;21.21;65.26;99711.06;10273878;28;20136;-64
2023/09/16 20:42:27;;;;;;;4.00;2.58;;;;;;;21.02;65.78;99705.06;10289378;28;20057;-62
2023/09/16 20:47:29;;;;;;;4.95;2.70;;;;;;;21.01;66.07;99691.91;10289081;28;20409;-62
2023/09/16 20:52:32;;;;;;;5.55;3.25;;;;;;;21.14;66.13;99686.97;10292132;28;20487;-61
2023/09/16 20:57:34;;;;;;;5.57;2.58;;;;;;;21.24;66.03;99689.44;10289371;28;20038;-62
2023/09/16 21:02:36;;;;;;;8.23;3.45;;;;;;;21.22;65.81;99680.81;10288617;28;20184;-62
2023/09/16 21:07:38;;;;;;;5.75;3.80;;;;;;;21.16;66.27;99684.97;10292123;28;20046;-61
2023/09/16 21:12:40;;;;;;;5.72;3.53;;;;;;;21.05;66.64;99678.13;10294537;28;20190;-62
2023/09/16 21:17:42;;;;;;;7.00;3.60;;;;;;;21.01;66.68;99678.63;10294934;28;20100;-61
2023/09/16 21:22:44;;;;;;;6.63;3.15;;;;;;;21.02;66.68;99669.66;10269018;28;20521;-61
2023/09/16 21:27:46;;;;;;;5.15;3.22;;;;;;;20.96;66.85;99671.16;10298296;28;20042;-62
2023/09/16 21:32:51;;;;;;;7.45;3.50;;;;;;;20.87;66.83;99666.81;10297636;28;20192;-62
2023/09/16 21:37:54;;;;;;;7.32;3.53;;;;;;;20.79;66.55;99673.94;10297215;28;20143;-62
2023/09/16 21:42:56;;;;;;;6.15;3.35;;;;;;;20.81;66.36;99678.09;10299914;28;20062;-62
2023/09/16 21:47:58;;;;;;;4.95;3.03;;;;;;;20.80;66.40;99679.09;10299840;28;20034;-62
2023/09/16 21:53:00;;;;;;;5.57;3.00;;;;;;;20.79;66.50;99685.41;10296510;28;20494;-62
2023/09/16 21:58:02;;;;;;;5.45;3.33;;;;;;;20.77;66.75;99679.41;10297867;28;20058;-61
2023/09/16 22:03:04;;;;;;;5.88;3.70;;;;;;;20.61;67.14;99665.25;10293924;28;20516;-61
2023/09/16 22:08:07;;;;;;;6.32;3.70;;;;;;;20.54;67.28;99662.38;10281404;28;20056;-62
2023/09/16 22:13:10;;;;;;;6.88;3.40;;;;;;;20.48;67.19;99665.66;10295092;28;20051;-62
2023/09/16 22:18:13;;;;;;;5.53;3.70;;;;;;;20.35;67.13;99657.34;10295830;28;20050;-61
2023/09/16 22:23:15;;;;;;;6.00;3.83;;;;;;;20.22;67.56;99663.09;10213584;28;20074;-61
2023/09/16 22:28:17;;;;;;;5.45;3.53;;;;;;;20.22;67.62;99654.28;10217264;28;20057;-61
2023/09/16 22:33:19;;;;;;;10.43;3.58;;;;;;;20.34;67.16;99653.00;10217704;28;20054;-61
2023/09/16 22:38:21;;;;;;;4.97;2.95;;;;;;;20.38;67.21;99658.84;10216077;28;20043;-62
2023/09/16 22:43:23;;;;;;;4.93;2.88;;;;;;;20.41;66.90;99662.00;10216470;28;20306;-61
2023/09/16 22:48:25;;;;;;;5.65;3.25;;;;;;;20.48;67.10;99659.53;10216532;28;20326;-62
2023/09/16 22:53:27;;;;;;;5.10;3.00;;;;;;;20.43;67.02;99653.88;10214235;28;20066;-61
2023/09/16 22:58:29;;;;;;;5.38;2.97;;;;;;;20.43;66.84;99668.00;10217454;28;20047;-61
2023/09/16 23:03:31;;;;;;;5.40;3.20;;;;;;;20.40;66.80;99662.19;10213303;28;20058;-61
2023/09/16 23:08:33;;;;;;;6.82;3.05;;;;;;;20.30;66.82;99662.28;10215217;28;20054;-62
2023/09/16 23:13:35;;;;;;;6.25;3.08;;;;;;;20.11;66.90;99654.59;10215754;28;20043;-61
2023/09/16 23:18:42;;;;;;;5.53;3.17;;;;;;;20.12;67.37;99656.22;10214106;28;20052;-61
2023/09/16 23:23:44;;;;;;;7.72;3.13;;;;;;;20.17;67.25;99656.59;10272028;28;20069;-61
2023/09/16 23:28:47;;;;;;;5.13;3.15;;;;;;;20.19;66.90;99659.94;10296660;28;20099;-61
2023/09/16 23:33:49;;;;;;;8.57;3.13;;;;;;;20.19;66.82;99670.56;10292931;28;20049;-62
2023/09/16 23:38:51;;;;;;;5.53;2.90;;;;;;;20.11;66.84;99665.19;10295485;28;20043;-62
2023/09/16 23:43:54;;;;;;;5.07;2.95;;;;;;;19.96;67.14;99662.31;10294974;28;20047;-61